Country
Station

 

Weather  for  Unalakleet  -  United States    United States

  
4 °C (39 °F)
    
 
 

Current METAR for Unalakleet is :

PAUN 180956Z AUTO 05012KT 10SM CLR 04/M03 A2941 RMK AO2 SLP964 T00441028 PNO $

 

This is a report for Unalakleet - United States.
 
The report was made 20 minutes ago, at 09:56 UTC .
The wind was blowing at a speed of 6.2 meters per second (13.8 miles per hour) from northeast (050°).
 
The temperature was 4 °C (39 °F), with a dew-point at -3 °C (27 °F).
The temperature felt like -1 °C (31 °F).
 
The atmospheric pressure was 996 hPa (29.41 inHg).
The relative humidity was 60.2%.
 
The sky was clear.
 
The overall visibility was 16.1 kilometers (10.0 miles).
 

 
 
 
 

Country :   A   B   C   D   E   F   G   H   I   J   K   L   M   N   O   P   Q   R   S   T   U   V   W   Y   Z

 

Site Info  |  Disclaimer  |  Credits  |  Privacy
Contact us  |  Add to favorites
© 2013-2019 METARs - All rights reserved